sensor_id;sensor_type;location;lat;lon;timestamp;P1;durP1;ratioP1;P2;durP2;ratioP2
83814;SDS011;73829;53.826;-3.034;2024-03-08T00:01:31;4.70;;;2.40;;
83814;SDS011;73829;53.826;-3.034;2024-03-08T00:04:02;5.80;;;3.00;;
83814;SDS011;73829;53.826;-3.034;2024-03-08T00:06:34;5.20;;;3.10;;
83814;SDS011;73829;53.826;-3.034;2024-03-08T00:09:05;5.10;;;2.80;;
83814;SDS011;73829;53.826;-3.034;2024-03-08T00:11:36;5.90;;;2.90;;
83814;SDS011;73829;53.826;-3.034;2024-03-08T00:14:08;4.60;;;2.60;;
83814;SDS011;73829;53.826;-3.034;2024-03-08T00:16:39;4.60;;;2.80;;
83814;SDS011;73829;53.826;-3.034;2024-03-08T00:19:11;5.40;;;2.60;;
83814;SDS011;73829;53.826;-3.034;2024-03-08T00:21:42;5.00;;;2.60;;
83814;SDS011;73829;53.826;-3.034;2024-03-08T00:24:14;5.10;;;2.40;;
83814;SDS011;73829;53.826;-3.034;2024-03-08T00:26:45;4.80;;;2.40;;
83814;SDS011;73829;53.826;-3.034;2024-03-08T00:29:16;5.10;;;2.50;;
83814;SDS011;73829;53.826;-3.034;2024-03-08T00:31:47;5.20;;;2.60;;
83814;SDS011;73829;53.826;-3.034;2024-03-08T00:34:18;4.60;;;2.40;;
83814;SDS011;73829;53.826;-3.034;2024-03-08T00:36:49;5.20;;;2.70;;
83814;SDS011;73829;53.826;-3.034;2024-03-08T00:39:21;4.60;;;2.40;;
83814;SDS011;73829;53.826;-3.034;2024-03-08T00:41:53;5.20;;;3.00;;
83814;SDS011;73829;53.826;-3.034;2024-03-08T00:44:25;5.40;;;2.80;;
83814;SDS011;73829;53.826;-3.034;2024-03-08T00:46:56;6.20;;;2.80;;
83814;SDS011;73829;53.826;-3.034;2024-03-08T00:49:28;5.20;;;2.50;;
83814;SDS011;73829;53.826;-3.034;2024-03-08T00:51:59;4.60;;;2.30;;
83814;SDS011;73829;53.826;-3.034;2024-03-08T00:54:30;5.00;;;2.80;;
83814;SDS011;73829;53.826;-3.034;2024-03-08T00:57:02;5.20;;;2.90;;
83814;SDS011;73829;53.826;-3.034;2024-03-08T00:59:34;4.20;;;2.30;;
83814;SDS011;73829;53.826;-3.034;2024-03-08T01:02:06;4.30;;;2.40;;
83814;SDS011;73829;53.826;-3.034;2024-03-08T01:04:38;5.90;;;3.00;;
83814;SDS011;73829;53.826;-3.034;2024-03-08T01:07:09;5.90;;;2.20;;
83814;SDS011;73829;53.826;-3.034;2024-03-08T01:09:41;5.20;;;2.70;;
83814;SDS011;73829;53.826;-3.034;2024-03-08T01:12:12;4.60;;;2.40;;
83814;SDS011;73829;53.826;-3.034;2024-03-08T01:14:43;5.90;;;2.50;;
83814;SDS011;73829;53.826;-3.034;2024-03-08T01:17:14;4.30;;;2.50;;
83814;SDS011;73829;53.826;-3.034;2024-03-08T01:19:45;5.70;;;2.80;;
83814;SDS011;73829;53.826;-3.034;2024-03-08T01:22:17;5.20;;;2.40;;
83814;SDS011;73829;53.826;-3.034;2024-03-08T01:24:50;4.60;;;2.40;;
83814;SDS011;73829;53.826;-3.034;2024-03-08T01:27:21;4.40;;;2.40;;
83814;SDS011;73829;53.826;-3.034;2024-03-08T01:29:53;5.00;;;2.50;;
83814;SDS011;73829;53.826;-3.034;2024-03-08T01:32:24;4.70;;;2.50;;
83814;SDS011;73829;53.826;-3.034;2024-03-08T01:34:55;4.30;;;2.20;;
83814;SDS011;73829;53.826;-3.034;2024-03-08T01:37:27;4.20;;;2.20;;
83814;SDS011;73829;53.826;-3.034;2024-03-08T01:39:58;4.20;;;2.20;;
83814;SDS011;73829;53.826;-3.034;2024-03-08T01:42:30;4.20;;;2.20;;
83814;SDS011;73829;53.826;-3.034;2024-03-08T01:45:01;5.60;;;2.60;;
83814;SDS011;73829;53.826;-3.034;2024-03-08T01:47:33;4.60;;;2.40;;
83814;SDS011;73829;53.826;-3.034;2024-03-08T01:50:06;4.80;;;2.50;;
83814;SDS011;73829;53.826;-3.034;2024-03-08T01:52:38;4.40;;;2.40;;
83814;SDS011;73829;53.826;-3.034;2024-03-08T01:55:10;4.40;;;2.40;;
83814;SDS011;73829;53.826;-3.034;2024-03-08T01:57:42;4.00;;;2.20;;
83814;SDS011;73829;53.826;-3.034;2024-03-08T02:00:15;6.30;;;2.90;;
83814;SDS011;73829;53.826;-3.034;2024-03-08T02:02:48;4.70;;;2.40;;
83814;SDS011;73829;53.826;-3.034;2024-03-08T02:05:21;4.80;;;2.70;;
83814;SDS011;73829;53.826;-3.034;2024-03-08T02:07:52;5.00;;;2.50;;
83814;SDS011;73829;53.826;-3.034;2024-03-08T02:10:24;5.40;;;2.70;;
83814;SDS011;73829;53.826;-3.034;2024-03-08T02:12:56;5.00;;;2.40;;
83814;SDS011;73829;53.826;-3.034;2024-03-08T02:15:27;5.30;;;2.40;;
83814;SDS011;73829;53.826;-3.034;2024-03-08T02:18:22;5.10;;;2.50;;
83814;SDS011;73829;53.826;-3.034;2024-03-08T02:20:55;4.60;;;2.50;;
83814;SDS011;73829;53.826;-3.034;2024-03-08T02:23:27;5.20;;;2.60;;
83814;SDS011;73829;53.826;-3.034;2024-03-08T02:25:58;4.40;;;2.30;;
83814;SDS011;73829;53.826;-3.034;2024-03-08T02:28:30;4.80;;;2.40;;
83814;SDS011;73829;53.826;-3.034;2024-03-08T02:31:02;4.90;;;2.50;;
83814;SDS011;73829;53.826;-3.034;2024-03-08T02:33:36;3.90;;;2.00;;
83814;SDS011;73829;53.826;-3.034;2024-03-08T02:36:07;4.00;;;2.20;;
83814;SDS011;73829;53.826;-3.034;2024-03-08T02:38:39;5.00;;;2.50;;
83814;SDS011;73829;53.826;-3.034;2024-03-08T02:41:11;4.10;;;2.20;;
83814;SDS011;73829;53.826;-3.034;2024-03-08T02:43:42;4.40;;;2.10;;
83814;SDS011;73829;53.826;-3.034;2024-03-08T02:46:13;5.30;;;2.30;;
83814;SDS011;73829;53.826;-3.034;2024-03-08T02:48:44;4.50;;;2.40;;
83814;SDS011;73829;53.826;-3.034;2024-03-08T02:51:16;5.40;;;2.40;;
83814;SDS011;73829;53.826;-3.034;2024-03-08T02:53:48;4.30;;;2.20;;
83814;SDS011;73829;53.826;-3.034;2024-03-08T02:56:19;4.50;;;1.90;;
83814;SDS011;73829;53.826;-3.034;2024-03-08T02:58:50;5.20;;;2.50;;
83814;SDS011;73829;53.826;-3.034;2024-03-08T03:01:24;5.00;;;2.40;;
83814;SDS011;73829;53.826;-3.034;2024-03-08T03:03:56;4.10;;;2.10;;
83814;SDS011;73829;53.826;-3.034;2024-03-08T03:06:27;4.10;;;2.00;;
83814;SDS011;73829;53.826;-3.034;2024-03-08T03:08:59;4.80;;;2.20;;
83814;SDS011;73829;53.826;-3.034;2024-03-08T03:11:30;4.20;;;2.40;;
83814;SDS011;73829;53.826;-3.034;2024-03-08T03:14:01;6.90;;;2.40;;
83814;SDS011;73829;53.826;-3.034;2024-03-08T03:16:32;4.30;;;2.30;;
83814;SDS011;73829;53.826;-3.034;2024-03-08T03:19:04;4.30;;;2.20;;
83814;SDS011;73829;53.826;-3.034;2024-03-08T03:21:35;4.00;;;2.20;;
83814;SDS011;73829;53.826;-3.034;2024-03-08T03:24:07;4.70;;;2.70;;
83814;SDS011;73829;53.826;-3.034;2024-03-08T03:26:39;5.50;;;2.30;;
83814;SDS011;73829;53.826;-3.034;2024-03-08T03:29:13;4.90;;;2.50;;
83814;SDS011;73829;53.826;-3.034;2024-03-08T03:31:46;4.90;;;2.50;;
83814;SDS011;73829;53.826;-3.034;2024-03-08T03:34:17;4.40;;;1.90;;
83814;SDS011;73829;53.826;-3.034;2024-03-08T03:36:48;4.70;;;2.30;;
83814;SDS011;73829;53.826;-3.034;2024-03-08T03:39:20;5.50;;;2.70;;
83814;SDS011;73829;53.826;-3.034;2024-03-08T03:41:52;5.10;;;2.40;;
83814;SDS011;73829;53.826;-3.034;2024-03-08T03:44:23;3.90;;;2.00;;
83814;SDS011;73829;53.826;-3.034;2024-03-08T03:46:55;4.50;;;2.20;;
83814;SDS011;73829;53.826;-3.034;2024-03-08T03:49:26;4.50;;;2.50;;
83814;SDS011;73829;53.826;-3.034;2024-03-08T03:51:57;4.70;;;2.30;;
83814;SDS011;73829;53.826;-3.034;2024-03-08T03:54:28;5.00;;;2.40;;
83814;SDS011;73829;53.826;-3.034;2024-03-08T03:56:59;4.40;;;2.20;;
83814;SDS011;73829;53.826;-3.034;2024-03-08T03:59:30;4.80;;;2.30;;
83814;SDS011;73829;53.826;-3.034;2024-03-08T04:02:01;4.70;;;2.20;;
83814;SDS011;73829;53.826;-3.034;2024-03-08T04:04:39;5.20;;;2.50;;
83814;SDS011;73829;53.826;-3.034;2024-03-08T04:07:10;4.60;;;2.30;;
83814;SDS011;73829;53.826;-3.034;2024-03-08T04:09:41;4.50;;;2.10;;
83814;SDS011;73829;53.826;-3.034;2024-03-08T04:12:13;4.70;;;2.30;;
83814;SDS011;73829;53.826;-3.034;2024-03-08T04:14:44;5.40;;;2.40;;
83814;SDS011;73829;53.826;-3.034;2024-03-08T04:17:15;4.10;;;2.40;;
83814;SDS011;73829;53.826;-3.034;2024-03-08T04:19:46;5.00;;;2.50;;
83814;SDS011;73829;53.826;-3.034;2024-03-08T04:22:18;4.30;;;2.30;;
83814;SDS011;73829;53.826;-3.034;2024-03-08T04:24:49;4.20;;;1.90;;
83814;SDS011;73829;53.826;-3.034;2024-03-08T04:27:20;4.30;;;2.40;;
83814;SDS011;73829;53.826;-3.034;2024-03-08T04:29:52;4.10;;;2.10;;
83814;SDS011;73829;53.826;-3.034;2024-03-08T04:32:23;4.20;;;2.40;;
83814;SDS011;73829;53.826;-3.034;2024-03-08T04:34:56;4.50;;;2.10;;
83814;SDS011;73829;53.826;-3.034;2024-03-08T04:37:29;4.40;;;2.20;;
83814;SDS011;73829;53.826;-3.034;2024-03-08T04:40:00;4.30;;;2.00;;
83814;SDS011;73829;53.826;-3.034;2024-03-08T04:42:32;5.00;;;2.40;;
83814;SDS011;73829;53.826;-3.034;2024-03-08T04:45:06;4.20;;;2.50;;
83814;SDS011;73829;53.826;-3.034;2024-03-08T04:47:38;4.60;;;2.50;;
83814;SDS011;73829;53.826;-3.034;2024-03-08T04:50:10;4.70;;;2.30;;
83814;SDS011;73829;53.826;-3.034;2024-03-08T04:52:41;4.70;;;2.30;;
83814;SDS011;73829;53.826;-3.034;2024-03-08T04:55:12;4.70;;;2.60;;
83814;SDS011;73829;53.826;-3.034;2024-03-08T04:57:44;4.00;;;2.20;;
83814;SDS011;73829;53.826;-3.034;2024-03-08T05:00:16;4.30;;;2.10;;
83814;SDS011;73829;53.826;-3.034;2024-03-08T05:02:48;5.40;;;2.60;;
83814;SDS011;73829;53.826;-3.034;2024-03-08T05:05:27;4.20;;;2.40;;
83814;SDS011;73829;53.826;-3.034;2024-03-08T05:07:58;4.10;;;2.20;;
83814;SDS011;73829;53.826;-3.034;2024-03-08T05:10:30;4.30;;;2.00;;
83814;SDS011;73829;53.826;-3.034;2024-03-08T05:13:02;4.10;;;2.10;;
83814;SDS011;73829;53.826;-3.034;2024-03-08T05:15:33;5.30;;;2.60;;
83814;SDS011;73829;53.826;-3.034;2024-03-08T05:18:04;4.20;;;2.10;;
83814;SDS011;73829;53.826;-3.034;2024-03-08T05:20:36;4.90;;;2.50;;
83814;SDS011;73829;53.826;-3.034;2024-03-08T05:23:09;4.80;;;2.50;;
83814;SDS011;73829;53.826;-3.034;2024-03-08T05:25:41;4.50;;;2.30;;
83814;SDS011;73829;53.826;-3.034;2024-03-08T05:28:12;4.20;;;2.30;;
83814;SDS011;73829;53.826;-3.034;2024-03-08T05:30:43;4.20;;;2.20;;
83814;SDS011;73829;53.826;-3.034;2024-03-08T05:33:15;4.60;;;2.10;;
83814;SDS011;73829;53.826;-3.034;2024-03-08T05:35:47;4.50;;;2.10;;
83814;SDS011;73829;53.826;-3.034;2024-03-08T05:38:20;5.10;;;2.40;;
83814;SDS011;73829;53.826;-3.034;2024-03-08T05:40:52;4.70;;;2.20;;
83814;SDS011;73829;53.826;-3.034;2024-03-08T05:43:23;4.40;;;2.30;;
83814;SDS011;73829;53.826;-3.034;2024-03-08T05:45:54;4.50;;;2.30;;
83814;SDS011;73829;53.826;-3.034;2024-03-08T05:48:25;4.40;;;2.30;;
83814;SDS011;73829;53.826;-3.034;2024-03-08T05:50:56;4.10;;;1.90;;
83814;SDS011;73829;53.826;-3.034;2024-03-08T05:53:29;4.90;;;2.30;;
83814;SDS011;73829;53.826;-3.034;2024-03-08T05:56:00;4.60;;;2.30;;
83814;SDS011;73829;53.826;-3.034;2024-03-08T05:58:32;4.70;;;2.30;;
83814;SDS011;73829;53.826;-3.034;2024-03-08T06:01:03;4.40;;;2.10;;
83814;SDS011;73829;53.826;-3.034;2024-03-08T06:03:35;4.60;;;2.30;;
83814;SDS011;73829;53.826;-3.034;2024-03-08T06:06:13;4.70;;;2.50;;
83814;SDS011;73829;53.826;-3.034;2024-03-08T06:08:45;4.40;;;2.20;;
83814;SDS011;73829;53.826;-3.034;2024-03-08T06:11:17;4.30;;;2.20;;
83814;SDS011;73829;53.826;-3.034;2024-03-08T06:13:49;4.70;;;2.10;;
83814;SDS011;73829;53.826;-3.034;2024-03-08T06:16:23;4.50;;;2.40;;
83814;SDS011;73829;53.826;-3.034;2024-03-08T06:18:57;4.60;;;2.20;;
83814;SDS011;73829;53.826;-3.034;2024-03-08T06:21:30;4.50;;;2.10;;
83814;SDS011;73829;53.826;-3.034;2024-03-08T06:24:01;4.50;;;2.40;;
83814;SDS011;73829;53.826;-3.034;2024-03-08T06:26:33;4.00;;;2.10;;
83814;SDS011;73829;53.826;-3.034;2024-03-08T06:29:05;4.50;;;2.00;;
83814;SDS011;73829;53.826;-3.034;2024-03-08T06:31:37;4.60;;;2.40;;
83814;SDS011;73829;53.826;-3.034;2024-03-08T06:34:08;3.80;;;2.10;;
83814;SDS011;73829;53.826;-3.034;2024-03-08T06:36:39;4.20;;;2.10;;
83814;SDS011;73829;53.826;-3.034;2024-03-08T06:39:11;4.50;;;2.20;;
83814;SDS011;73829;53.826;-3.034;2024-03-08T06:41:43;4.60;;;2.20;;
83814;SDS011;73829;53.826;-3.034;2024-03-08T06:44:14;5.20;;;2.30;;
83814;SDS011;73829;53.826;-3.034;2024-03-08T06:46:45;4.80;;;2.50;;
83814;SDS011;73829;53.826;-3.034;2024-03-08T06:49:17;4.40;;;2.00;;
83814;SDS011;73829;53.826;-3.034;2024-03-08T06:51:48;5.00;;;2.30;;
83814;SDS011;73829;53.826;-3.034;2024-03-08T06:54:19;4.00;;;2.10;;
83814;SDS011;73829;53.826;-3.034;2024-03-08T06:56:51;4.20;;;2.20;;
83814;SDS011;73829;53.826;-3.034;2024-03-08T06:59:22;4.70;;;2.30;;
83814;SDS011;73829;53.826;-3.034;2024-03-08T07:01:53;4.20;;;2.00;;
83814;SDS011;73829;53.826;-3.034;2024-03-08T07:04:24;4.10;;;2.10;;
83814;SDS011;73829;53.826;-3.034;2024-03-08T07:06:57;5.10;;;2.40;;
83814;SDS011;73829;53.826;-3.034;2024-03-08T07:09:30;5.90;;;2.40;;
83814;SDS011;73829;53.826;-3.034;2024-03-08T07:12:01;4.30;;;2.00;;
83814;SDS011;73829;53.826;-3.034;2024-03-08T07:14:33;4.90;;;2.40;;
83814;SDS011;73829;53.826;-3.034;2024-03-08T07:17:08;3.70;;;2.00;;
83814;SDS011;73829;53.826;-3.034;2024-03-08T07:19:39;4.50;;;2.20;;
83814;SDS011;73829;53.826;-3.034;2024-03-08T07:22:11;4.90;;;2.40;;
83814;SDS011;73829;53.826;-3.034;2024-03-08T07:24:42;4.10;;;2.20;;
83814;SDS011;73829;53.826;-3.034;2024-03-08T07:27:32;4.90;;;2.20;;
83814;SDS011;73829;53.826;-3.034;2024-03-08T07:30:05;5.30;;;2.10;;
83814;SDS011;73829;53.826;-3.034;2024-03-08T07:32:38;4.70;;;2.50;;
83814;SDS011;73829;53.826;-3.034;2024-03-08T07:35:09;4.60;;;2.40;;
83814;SDS011;73829;53.826;-3.034;2024-03-08T07:37:40;5.10;;;2.60;;
83814;SDS011;73829;53.826;-3.034;2024-03-08T07:40:12;4.90;;;2.30;;
83814;SDS011;73829;53.826;-3.034;2024-03-08T07:42:45;5.00;;;2.20;;
83814;SDS011;73829;53.826;-3.034;2024-03-08T07:45:16;4.10;;;2.20;;
83814;SDS011;73829;53.826;-3.034;2024-03-08T07:47:51;4.70;;;2.30;;
83814;SDS011;73829;53.826;-3.034;2024-03-08T07:50:23;4.10;;;1.90;;
83814;SDS011;73829;53.826;-3.034;2024-03-08T07:52:54;3.60;;;2.00;;
83814;SDS011;73829;53.826;-3.034;2024-03-08T07:55:27;4.60;;;2.20;;
83814;SDS011;73829;53.826;-3.034;2024-03-08T07:57:59;4.50;;;2.10;;
83814;SDS011;73829;53.826;-3.034;2024-03-08T08:00:30;3.70;;;1.90;;
83814;SDS011;73829;53.826;-3.034;2024-03-08T08:03:01;4.40;;;2.20;;
83814;SDS011;73829;53.826;-3.034;2024-03-08T08:05:33;4.70;;;2.10;;
83814;SDS011;73829;53.826;-3.034;2024-03-08T08:08:07;5.00;;;2.40;;
83814;SDS011;73829;53.826;-3.034;2024-03-08T08:10:38;4.90;;;2.60;;
83814;SDS011;73829;53.826;-3.034;2024-03-08T08:13:10;4.10;;;2.10;;
83814;SDS011;73829;53.826;-3.034;2024-03-08T08:15:41;4.70;;;2.40;;
83814;SDS011;73829;53.826;-3.034;2024-03-08T08:18:13;4.20;;;2.10;;
83814;SDS011;73829;53.826;-3.034;2024-03-08T08:20:47;5.70;;;2.50;;
83814;SDS011;73829;53.826;-3.034;2024-03-08T08:23:20;4.20;;;2.30;;
83814;SDS011;73829;53.826;-3.034;2024-03-08T08:25:51;4.70;;;2.00;;
83814;SDS011;73829;53.826;-3.034;2024-03-08T08:28:23;5.00;;;2.20;;
83814;SDS011;73829;53.826;-3.034;2024-03-08T08:30:54;5.00;;;2.20;;
83814;SDS011;73829;53.826;-3.034;2024-03-08T08:33:27;6.20;;;2.50;;
83814;SDS011;73829;53.826;-3.034;2024-03-08T08:35:58;6.30;;;2.50;;
83814;SDS011;73829;53.826;-3.034;2024-03-08T08:38:30;4.90;;;2.50;;
83814;SDS011;73829;53.826;-3.034;2024-03-08T08:41:01;4.40;;;2.20;;
83814;SDS011;73829;53.826;-3.034;2024-03-08T08:43:34;4.20;;;2.10;;
83814;SDS011;73829;53.826;-3.034;2024-03-08T08:46:05;4.80;;;2.30;;
83814;SDS011;73829;53.826;-3.034;2024-03-08T08:48:36;4.80;;;2.50;;
83814;SDS011;73829;53.826;-3.034;2024-03-08T08:51:09;5.30;;;2.20;;
83814;SDS011;73829;53.826;-3.034;2024-03-08T08:53:41;5.50;;;2.10;;
83814;SDS011;73829;53.826;-3.034;2024-03-08T08:56:14;5.20;;;2.10;;
83814;SDS011;73829;53.826;-3.034;2024-03-08T08:58:47;4.20;;;2.10;;
83814;SDS011;73829;53.826;-3.034;2024-03-08T09:01:18;5.10;;;2.40;;
83814;SDS011;73829;53.826;-3.034;2024-03-08T09:03:53;5.20;;;2.30;;
83814;SDS011;73829;53.826;-3.034;2024-03-08T09:06:24;4.20;;;2.00;;
83814;SDS011;73829;53.826;-3.034;2024-03-08T09:08:55;9.10;;;4.20;;
83814;SDS011;73829;53.826;-3.034;2024-03-08T09:11:26;9.60;;;4.40;;
83814;SDS011;73829;53.826;-3.034;2024-03-08T09:13:58;12.20;;;5.50;;
83814;SDS011;73829;53.826;-3.034;2024-03-08T09:16:29;10.40;;;4.80;;
83814;SDS011;73829;53.826;-3.034;2024-03-08T09:19:01;9.40;;;4.80;;
83814;SDS011;73829;53.826;-3.034;2024-03-08T09:21:33;8.80;;;4.50;;
83814;SDS011;73829;53.826;-3.034;2024-03-08T09:24:05;9.50;;;4.80;;
83814;SDS011;73829;53.826;-3.034;2024-03-08T09:26:36;11.20;;;5.00;;
83814;SDS011;73829;53.826;-3.034;2024-03-08T09:29:11;8.40;;;4.30;;
83814;SDS011;73829;53.826;-3.034;2024-03-08T09:31:42;12.30;;;4.60;;
83814;SDS011;73829;53.826;-3.034;2024-03-08T09:34:14;10.10;;;4.50;;
83814;SDS011;73829;53.826;-3.034;2024-03-08T09:36:46;11.40;;;4.40;;
83814;SDS011;73829;53.826;-3.034;2024-03-08T09:39:18;8.70;;;4.30;;
83814;SDS011;73829;53.826;-3.034;2024-03-08T09:41:50;9.10;;;4.30;;
83814;SDS011;73829;53.826;-3.034;2024-03-08T09:44:23;9.90;;;4.70;;
83814;SDS011;73829;53.826;-3.034;2024-03-08T09:46:58;10.10;;;5.00;;
83814;SDS011;73829;53.826;-3.034;2024-03-08T09:49:31;10.10;;;5.00;;
83814;SDS011;73829;53.826;-3.034;2024-03-08T09:52:02;9.10;;;4.70;;
83814;SDS011;73829;53.826;-3.034;2024-03-08T09:54:34;9.70;;;5.00;;
83814;SDS011;73829;53.826;-3.034;2024-03-08T09:57:06;10.50;;;5.30;;
83814;SDS011;73829;53.826;-3.034;2024-03-08T09:59:37;9.50;;;5.20;;
83814;SDS011;73829;53.826;-3.034;2024-03-08T10:02:16;9.90;;;5.30;;
83814;SDS011;73829;53.826;-3.034;2024-03-08T10:04:47;9.40;;;4.90;;
83814;SDS011;73829;53.826;-3.034;2024-03-08T10:07:18;10.00;;;4.90;;
83814;SDS011;73829;53.826;-3.034;2024-03-08T10:09:49;9.40;;;4.50;;
83814;SDS011;73829;53.826;-3.034;2024-03-08T10:12:22;8.40;;;4.60;;
83814;SDS011;73829;53.826;-3.034;2024-03-08T10:14:56;11.40;;;6.50;;
83814;SDS011;73829;53.826;-3.034;2024-03-08T10:17:27;11.70;;;6.50;;
83814;SDS011;73829;53.826;-3.034;2024-03-08T10:20:00;12.40;;;5.90;;
83814;SDS011;73829;53.826;-3.034;2024-03-08T10:22:32;11.30;;;5.50;;
83814;SDS011;73829;53.826;-3.034;2024-03-08T10:25:05;11.80;;;5.70;;
83814;SDS011;73829;53.826;-3.034;2024-03-08T10:27:39;12.30;;;5.90;;
83814;SDS011;73829;53.826;-3.034;2024-03-08T10:30:12;10.50;;;5.30;;
83814;SDS011;73829;53.826;-3.034;2024-03-08T10:32:49;10.30;;;5.40;;
83814;SDS011;73829;53.826;-3.034;2024-03-08T10:35:20;11.90;;;5.40;;
83814;SDS011;73829;53.826;-3.034;2024-03-08T10:37:52;10.90;;;5.90;;
83814;SDS011;73829;53.826;-3.034;2024-03-08T10:40:26;11.50;;;6.40;;
83814;SDS011;73829;53.826;-3.034;2024-03-08T10:43:00;12.70;;;6.50;;
83814;SDS011;73829;53.826;-3.034;2024-03-08T10:45:34;11.00;;;6.00;;
83814;SDS011;73829;53.826;-3.034;2024-03-08T10:48:17;10.20;;;5.80;;
83814;SDS011;73829;53.826;-3.034;2024-03-08T10:50:59;11.00;;;5.70;;
83814;SDS011;73829;53.826;-3.034;2024-03-08T10:53:31;10.30;;;5.40;;
83814;SDS011;73829;53.826;-3.034;2024-03-08T10:56:09;10.90;;;5.60;;
83814;SDS011;73829;53.826;-3.034;2024-03-08T10:58:42;9.40;;;5.60;;
83814;SDS011;73829;53.826;-3.034;2024-03-08T11:01:16;9.50;;;5.20;;
83814;SDS011;73829;53.826;-3.034;2024-03-08T11:03:55;9.80;;;5.60;;
83814;SDS011;73829;53.826;-3.034;2024-03-08T11:06:31;9.80;;;5.40;;
83814;SDS011;73829;53.826;-3.034;2024-03-08T11:09:31;9.80;;;5.20;;
83814;SDS011;73829;53.826;-3.034;2024-03-08T11:12:20;9.00;;;5.00;;
83814;SDS011;73829;53.826;-3.034;2024-03-08T11:14:58;9.70;;;4.80;;
83814;SDS011;73829;53.826;-3.034;2024-03-08T11:17:44;10.20;;;4.50;;
83814;SDS011;73829;53.826;-3.034;2024-03-08T11:20:16;11.80;;;5.70;;
83814;SDS011;73829;53.826;-3.034;2024-03-08T11:22:51;9.80;;;5.30;;
83814;SDS011;73829;53.826;-3.034;2024-03-08T11:28:13;9.50;;;5.20;;
83814;SDS011;73829;53.826;-3.034;2024-03-08T11:30:46;9.50;;;5.60;;
83814;SDS011;73829;53.826;-3.034;2024-03-08T11:33:39;9.00;;;4.90;;
83814;SDS011;73829;53.826;-3.034;2024-03-08T11:36:12;10.00;;;4.70;;
83814;SDS011;73829;53.826;-3.034;2024-03-08T11:38:50;11.10;;;5.10;;
83814;SDS011;73829;53.826;-3.034;2024-03-08T11:41:23;10.40;;;5.00;;
83814;SDS011;73829;53.826;-3.034;2024-03-08T11:44:03;8.80;;;4.70;;
83814;SDS011;73829;53.826;-3.034;2024-03-08T11:46:35;8.00;;;4.80;;
83814;SDS011;73829;53.826;-3.034;2024-03-08T11:49:10;9.30;;;5.10;;
83814;SDS011;73829;53.826;-3.034;2024-03-08T11:51:41;8.90;;;4.60;;
83814;SDS011;73829;53.826;-3.034;2024-03-08T11:54:14;9.60;;;5.00;;
83814;SDS011;73829;53.826;-3.034;2024-03-08T11:56:45;9.00;;;4.90;;
83814;SDS011;73829;53.826;-3.034;2024-03-08T11:59:17;8.40;;;4.60;;
83814;SDS011;73829;53.826;-3.034;2024-03-08T12:01:59;8.20;;;4.70;;
83814;SDS011;73829;53.826;-3.034;2024-03-08T12:04:31;7.70;;;4.60;;
83814;SDS011;73829;53.826;-3.034;2024-03-08T12:07:04;8.20;;;4.50;;
83814;SDS011;73829;53.826;-3.034;2024-03-08T12:09:39;8.30;;;4.90;;
83814;SDS011;73829;53.826;-3.034;2024-03-08T12:12:14;8.30;;;5.00;;
83814;SDS011;73829;53.826;-3.034;2024-03-08T12:14:45;9.10;;;5.30;;
83814;SDS011;73829;53.826;-3.034;2024-03-08T12:17:17;8.70;;;5.10;;
83814;SDS011;73829;53.826;-3.034;2024-03-08T12:19:48;9.60;;;4.60;;
83814;SDS011;73829;53.826;-3.034;2024-03-08T12:22:21;8.90;;;4.80;;
83814;SDS011;73829;53.826;-3.034;2024-03-08T12:25:04;8.90;;;4.40;;
83814;SDS011;73829;53.826;-3.034;2024-03-08T12:27:38;8.10;;;4.50;;
83814;SDS011;73829;53.826;-3.034;2024-03-08T12:30:17;8.20;;;4.20;;
83814;SDS011;73829;53.826;-3.034;2024-03-08T12:32:52;8.00;;;4.20;;
83814;SDS011;73829;53.826;-3.034;2024-03-08T12:35:26;8.30;;;4.40;;
83814;SDS011;73829;53.826;-3.034;2024-03-08T12:38:01;8.80;;;4.50;;
83814;SDS011;73829;53.826;-3.034;2024-03-08T12:40:33;8.00;;;4.60;;
83814;SDS011;73829;53.826;-3.034;2024-03-08T12:43:09;8.00;;;4.50;;
83814;SDS011;73829;53.826;-3.034;2024-03-08T12:45:43;9.10;;;4.30;;
83814;SDS011;73829;53.826;-3.034;2024-03-08T12:48:15;7.90;;;4.30;;
83814;SDS011;73829;53.826;-3.034;2024-03-08T12:50:48;8.30;;;4.70;;
83814;SDS011;73829;53.826;-3.034;2024-03-08T12:53:20;7.30;;;3.90;;
83814;SDS011;73829;53.826;-3.034;2024-03-08T12:55:53;9.20;;;4.50;;
83814;SDS011;73829;53.826;-3.034;2024-03-08T12:58:25;8.60;;;4.90;;
83814;SDS011;73829;53.826;-3.034;2024-03-08T13:00:56;9.60;;;5.10;;
83814;SDS011;73829;53.826;-3.034;2024-03-08T13:03:28;9.10;;;4.40;;
83814;SDS011;73829;53.826;-3.034;2024-03-08T13:05:59;9.00;;;4.90;;
83814;SDS011;73829;53.826;-3.034;2024-03-08T13:08:31;7.70;;;4.40;;
83814;SDS011;73829;53.826;-3.034;2024-03-08T13:11:03;9.00;;;5.10;;
83814;SDS011;73829;53.826;-3.034;2024-03-08T13:13:35;8.10;;;4.00;;
83814;SDS011;73829;53.826;-3.034;2024-03-08T13:16:08;8.50;;;4.70;;
83814;SDS011;73829;53.826;-3.034;2024-03-08T13:18:42;8.60;;;4.20;;
83814;SDS011;73829;53.826;-3.034;2024-03-08T13:21:14;8.00;;;4.10;;
83814;SDS011;73829;53.826;-3.034;2024-03-08T13:23:48;7.40;;;4.30;;
83814;SDS011;73829;53.826;-3.034;2024-03-08T13:26:20;7.80;;;4.10;;
83814;SDS011;73829;53.826;-3.034;2024-03-08T13:28:53;8.10;;;4.50;;
83814;SDS011;73829;53.826;-3.034;2024-03-08T13:31:26;8.30;;;4.10;;
83814;SDS011;73829;53.826;-3.034;2024-03-08T13:33:57;7.30;;;4.10;;
83814;SDS011;73829;53.826;-3.034;2024-03-08T13:36:28;7.20;;;4.10;;
83814;SDS011;73829;53.826;-3.034;2024-03-08T13:39:07;7.90;;;4.30;;
83814;SDS011;73829;53.826;-3.034;2024-03-08T13:41:43;7.10;;;4.10;;
83814;SDS011;73829;53.826;-3.034;2024-03-08T13:44:14;8.00;;;4.30;;
83814;SDS011;73829;53.826;-3.034;2024-03-08T13:46:46;7.80;;;4.10;;
83814;SDS011;73829;53.826;-3.034;2024-03-08T13:49:19;7.80;;;4.30;;
83814;SDS011;73829;53.826;-3.034;2024-03-08T13:51:50;7.90;;;4.30;;
83814;SDS011;73829;53.826;-3.034;2024-03-08T13:54:22;10.10;;;4.20;;
83814;SDS011;73829;53.826;-3.034;2024-03-08T13:56:54;7.50;;;3.90;;
83814;SDS011;73829;53.826;-3.034;2024-03-08T13:59:26;7.30;;;3.80;;
83814;SDS011;73829;53.826;-3.034;2024-03-08T14:01:57;7.20;;;3.80;;
83814;SDS011;73829;53.826;-3.034;2024-03-08T14:04:30;8.10;;;4.70;;
83814;SDS011;73829;53.826;-3.034;2024-03-08T14:07:02;8.10;;;4.70;;
83814;SDS011;73829;53.826;-3.034;2024-03-08T14:09:36;8.00;;;4.30;;
83814;SDS011;73829;53.826;-3.034;2024-03-08T14:12:11;7.70;;;4.50;;
83814;SDS011;73829;53.826;-3.034;2024-03-08T14:14:43;7.30;;;4.70;;
83814;SDS011;73829;53.826;-3.034;2024-03-08T14:17:14;7.50;;;4.60;;
83814;SDS011;73829;53.826;-3.034;2024-03-08T14:19:46;7.20;;;4.20;;
83814;SDS011;73829;53.826;-3.034;2024-03-08T14:22:18;7.60;;;3.90;;
83814;SDS011;73829;53.826;-3.034;2024-03-08T14:24:49;9.60;;;4.70;;
83814;SDS011;73829;53.826;-3.034;2024-03-08T14:27:20;7.30;;;4.10;;
83814;SDS011;73829;53.826;-3.034;2024-03-08T14:29:51;7.90;;;4.10;;
83814;SDS011;73829;53.826;-3.034;2024-03-08T14:32:22;8.20;;;4.70;;
83814;SDS011;73829;53.826;-3.034;2024-03-08T14:34:54;8.20;;;4.30;;
83814;SDS011;73829;53.826;-3.034;2024-03-08T14:37:27;9.40;;;5.00;;
83814;SDS011;73829;53.826;-3.034;2024-03-08T14:39:58;8.50;;;4.20;;
83814;SDS011;73829;53.826;-3.034;2024-03-08T14:42:29;8.80;;;5.50;;
83814;SDS011;73829;53.826;-3.034;2024-03-08T14:45:00;8.90;;;5.20;;
83814;SDS011;73829;53.826;-3.034;2024-03-08T14:47:32;9.70;;;4.60;;
83814;SDS011;73829;53.826;-3.034;2024-03-08T14:50:03;7.70;;;4.60;;
83814;SDS011;73829;53.826;-3.034;2024-03-08T14:52:36;10.50;;;5.00;;
83814;SDS011;73829;53.826;-3.034;2024-03-08T14:55:08;9.00;;;5.30;;
83814;SDS011;73829;53.826;-3.034;2024-03-08T14:57:42;8.90;;;5.00;;
83814;SDS011;73829;53.826;-3.034;2024-03-08T15:00:14;9.30;;;4.60;;
83814;SDS011;73829;53.826;-3.034;2024-03-08T15:02:54;9.10;;;4.90;;
83814;SDS011;73829;53.826;-3.034;2024-03-08T15:05:25;7.90;;;4.30;;
83814;SDS011;73829;53.826;-3.034;2024-03-08T15:07:59;9.80;;;4.90;;